createdAt,value
2022-08-04T00:00:53.994Z,4.07
2022-08-04T00:03:24.678Z,3.65
2022-08-04T00:05:59.758Z,3.95
2022-08-04T00:08:34.639Z,4.00
2022-08-04T00:11:03.259Z,4.22
2022-08-04T00:13:34.696Z,4.00
2022-08-04T00:16:06.216Z,3.80
2022-08-04T00:18:36.761Z,4.25
2022-08-04T00:21:06.932Z,3.92
2022-08-04T00:24:10.480Z,4.22
2022-08-04T00:26:26.291Z,3.92
2022-08-04T00:28:57.051Z,3.80
2022-08-04T00:31:53.944Z,4.28
2022-08-04T00:34:14.511Z,4.20
2022-08-04T00:36:42.861Z,3.53
2022-08-04T00:39:13.281Z,4.13
2022-08-04T00:41:56.518Z,4.15
2022-08-04T00:44:31.961Z,3.95
2022-08-04T00:47:07.786Z,4.05
2022-08-04T00:49:51.959Z,3.90
2022-08-04T00:52:32.752Z,3.70
2022-08-04T00:55:09.110Z,4.50
2022-08-04T00:57:45.793Z,3.92
2022-08-04T01:00:16.538Z,4.50
2022-08-04T01:02:51.857Z,3.80
2022-08-04T01:05:22.989Z,3.85
2022-08-04T01:08:01.188Z,4.13
2022-08-04T01:10:37.779Z,4.25
2022-08-04T01:13:23.282Z,3.90
2022-08-04T01:15:59.534Z,4.40
2022-08-04T01:18:32.624Z,4.70
2022-08-04T01:21:07.672Z,4.00
2022-08-04T01:23:56.129Z,4.13
2022-08-04T01:26:53.713Z,4.15
2022-08-04T01:29:43.949Z,3.92
2022-08-04T01:32:18.776Z,4.18
2022-08-04T01:37:21.976Z,4.28
2022-08-04T01:39:52.319Z,4.30
2022-08-04T01:42:22.524Z,4.10
2022-08-04T01:45:02.635Z,4.18
2022-08-04T01:47:31.838Z,4.35
2022-08-04T01:50:03.952Z,4.43
2022-08-04T01:52:33.636Z,4.20
2022-08-04T01:55:03.321Z,3.95
2022-08-04T01:57:37.611Z,4.20
2022-08-04T02:00:10.634Z,4.30
2022-08-04T02:02:39.232Z,4.20
2022-08-04T02:05:08.213Z,4.15
2022-08-04T02:07:49.771Z,4.40
2022-08-04T02:10:23.843Z,4.50
2022-08-04T02:12:58.096Z,4.53
2022-08-04T02:15:30.044Z,4.65
2022-08-04T02:18:02.533Z,4.90
2022-08-04T02:20:36.182Z,4.95
2022-08-04T02:25:36.264Z,5.35
2022-08-04T02:28:13.725Z,4.90
2022-08-04T02:30:48.916Z,4.78
2022-08-04T02:33:20.960Z,4.70
2022-08-04T02:35:54.104Z,4.80
2022-08-04T02:38:26.137Z,4.38
2022-08-04T02:40:59.145Z,4.50
2022-08-04T02:43:51.957Z,4.55
2022-08-04T02:46:20.868Z,4.40
2022-08-04T02:48:50.759Z,4.63
2022-08-04T02:51:21.624Z,5.10
2022-08-04T02:53:51.772Z,4.55
2022-08-04T02:56:21.237Z,4.60
2022-08-04T02:58:51.969Z,5.30
2022-08-04T03:01:23.551Z,5.05
2022-08-04T03:03:55.044Z,5.43
2022-08-04T03:06:38.268Z,5.10
2022-08-04T03:09:18.664Z,4.72
2022-08-04T03:11:53.064Z,5.00
2022-08-04T03:14:30.653Z,5.68
2022-08-04T03:17:21.166Z,4.63
2022-08-04T03:20:10.458Z,5.00
2022-08-04T03:23:12.431Z,5.15
2022-08-04T03:26:05.612Z,4.65
2022-08-04T03:28:44.439Z,5.40
2022-08-04T03:31:22.405Z,5.40
2022-08-04T03:33:58.998Z,5.40
2022-08-04T03:36:40.169Z,4.72
2022-08-04T03:39:23.469Z,4.82
2022-08-04T03:42:15.935Z,4.65
2022-08-04T03:45:03.289Z,5.30
2022-08-04T03:47:42.187Z,4.90
2022-08-04T03:50:37.150Z,4.88
2022-08-04T03:53:29.310Z,4.88
2022-08-04T03:56:11.947Z,5.13
2022-08-04T03:58:54.631Z,4.97
2022-08-04T04:02:01.558Z,5.38
2022-08-04T04:04:35.297Z,5.50
2022-08-04T04:07:36.954Z,5.30
2022-08-04T04:10:09.950Z,5.22
2022-08-04T04:12:56.035Z,4.90
2022-08-04T04:15:33.647Z,4.93
2022-08-04T04:18:27.864Z,4.75
2022-08-04T04:21:08.067Z,5.53
2022-08-04T04:23:48.993Z,5.07
2022-08-04T04:26:35.230Z,5.47
2022-08-04T04:29:29.044Z,4.93
2022-08-04T04:32:06.487Z,5.25
2022-08-04T04:34:46.062Z,5.30
2022-08-04T04:37:22.164Z,5.03
2022-08-04T04:39:57.572Z,5.18
2022-08-04T04:42:31.105Z,5.20
2022-08-04T04:45:13.659Z,4.97
2022-08-04T04:48:08.677Z,5.10
2022-08-04T04:50:40.277Z,4.57
2022-08-04T04:53:14.600Z,5.00
2022-08-04T04:55:48.096Z,4.38
2022-08-04T04:58:18.815Z,4.40
2022-08-04T05:01:07.214Z,4.38
2022-08-04T05:03:41.986Z,4.65
2022-08-04T05:06:16.489Z,4.82
2022-08-04T05:08:55.556Z,4.60
2022-08-04T05:11:41.525Z,4.80
2022-08-04T05:14:37.449Z,4.63
2022-08-04T05:17:03.555Z,4.15
2022-08-04T05:19:40.607Z,4.55
2022-08-04T05:22:14.419Z,4.88
2022-08-04T05:24:44.792Z,4.45
2022-08-04T05:27:14.355Z,4.28
2022-08-04T05:29:48.274Z,5.03
2022-08-04T05:32:18.121Z,4.55
2022-08-04T05:35:00.021Z,4.63
2022-08-04T05:37:30.330Z,4.53
2022-08-04T05:40:03.650Z,4.30
2022-08-04T05:42:34.568Z,4.47
2022-08-04T05:45:05.984Z,3.75
2022-08-04T05:47:37.156Z,3.88
2022-08-04T05:50:10.181Z,4.43
2022-08-04T05:52:38.989Z,3.88
2022-08-04T05:55:10.626Z,3.75
2022-08-04T05:57:44.713Z,3.72
2022-08-04T06:00:39.853Z,3.88
2022-08-04T06:03:07.581Z,4.07
2022-08-04T06:05:43.364Z,3.45
2022-08-04T06:08:13.432Z,3.45
2022-08-04T06:10:42.771Z,3.60
2022-08-04T06:13:49.794Z,3.53
2022-08-04T06:16:04.570Z,3.40
2022-08-04T06:20:03.933Z,3.30
2022-08-04T06:21:27.361Z,3.40
2022-08-04T06:24:00.814Z,3.95
2022-08-04T06:26:35.082Z,3.42
2022-08-04T06:29:14.008Z,3.15
2022-08-04T06:32:28.710Z,3.63
2022-08-04T06:34:51.532Z,3.30
2022-08-04T06:37:42.674Z,3.60
2022-08-04T06:40:31.992Z,4.03
2022-08-04T06:43:01.892Z,3.25
2022-08-04T06:45:34.694Z,3.80
2022-08-04T06:48:07.169Z,3.45
2022-08-04T06:51:24.863Z,3.30
2022-08-04T06:53:30.515Z,3.15
2022-08-04T06:55:59.346Z,3.13
2022-08-04T06:58:30.664Z,3.10
2022-08-04T07:01:02.092Z,3.03
2022-08-04T07:03:34.252Z,2.55
2022-08-04T07:06:06.308Z,2.80
2022-08-04T07:08:43.883Z,2.70
2022-08-04T07:11:15.705Z,2.60
2022-08-04T07:13:48.183Z,2.70
2022-08-04T07:16:20.140Z,2.67
2022-08-04T07:18:58.060Z,3.00
2022-08-04T07:21:38.829Z,3.15
2022-08-04T07:24:11.012Z,3.03
2022-08-04T07:26:40.978Z,2.78
2022-08-04T07:29:21.686Z,3.00
2022-08-04T07:31:50.813Z,2.90
2022-08-04T07:34:22.786Z,2.63
2022-08-04T07:36:57.355Z,2.70
2022-08-04T07:39:48.014Z,3.03
2022-08-04T07:42:20.388Z,2.60
2022-08-04T07:44:49.285Z,2.40
2022-08-04T07:47:25.137Z,2.88
2022-08-04T07:49:57.168Z,2.85
2022-08-04T07:52:29.703Z,2.50
2022-08-04T07:54:59.870Z,2.92
2022-08-04T07:57:41.796Z,2.80
2022-08-04T08:00:15.197Z,2.60
2022-08-04T08:02:46.667Z,2.50
2022-08-04T08:05:19.323Z,2.45
2022-08-04T08:07:54.567Z,2.35
2022-08-04T08:10:25.065Z,2.63
2022-08-04T08:12:55.622Z,2.50
2022-08-04T08:15:27.354Z,2.65
2022-08-04T08:18:00.543Z,2.28
2022-08-04T08:20:33.479Z,2.47
2022-08-04T08:23:05.239Z,2.15
2022-08-04T08:25:36.292Z,2.60
2022-08-04T08:28:08.661Z,2.60
2022-08-04T08:30:39.999Z,2.20
2022-08-04T08:33:14.489Z,2.65
2022-08-04T08:35:53.687Z,2.17
2022-08-04T08:38:27.851Z,2.28
2022-08-04T08:41:07.019Z,2.13
2022-08-04T08:44:05.033Z,2.20
2022-08-04T08:46:50.597Z,1.67
2022-08-04T08:50:03.032Z,1.90
2022-08-04T08:52:56.559Z,1.70
2022-08-04T08:55:28.574Z,1.98
2022-08-04T08:58:11.386Z,1.80
2022-08-04T09:00:47.832Z,1.70
2022-08-04T09:03:34.554Z,1.85
2022-08-04T09:06:07.814Z,1.65
2022-08-04T09:08:52.813Z,1.98
2022-08-04T09:11:26.533Z,1.77
2022-08-04T09:13:58.958Z,1.90
2022-08-04T09:16:31.969Z,2.28
2022-08-04T09:19:04.231Z,1.75
2022-08-04T09:21:35.683Z,1.75
2022-08-04T09:24:36.271Z,1.80
2022-08-04T09:27:00.417Z,1.58
2022-08-04T09:29:35.751Z,1.40
2022-08-04T09:32:08.273Z,1.70
2022-08-04T09:34:41.334Z,1.85
2022-08-04T09:37:13.409Z,2.13
2022-08-04T09:43:07.104Z,1.60
2022-08-04T09:45:42.368Z,1.48
2022-08-04T09:48:14.098Z,1.60
2022-08-04T09:50:46.886Z,1.50
2022-08-04T09:53:32.642Z,1.83
2022-08-04T09:56:05.266Z,1.58
2022-08-04T10:01:04.405Z,1.70
2022-08-04T10:03:34.741Z,1.45
2022-08-04T10:06:08.967Z,1.67
2022-08-04T10:08:45.491Z,1.48
2022-08-04T10:11:16.931Z,1.38
2022-08-04T10:13:50.202Z,1.30
2022-08-04T10:16:32.284Z,1.50
2022-08-04T10:19:08.049Z,1.20
2022-08-04T10:21:50.696Z,1.50
2022-08-04T10:24:35.593Z,1.40
2022-08-04T10:27:07.875Z,1.52
2022-08-04T10:29:40.178Z,1.50
2022-08-04T10:32:13.739Z,1.52
2022-08-04T10:34:44.672Z,1.40
2022-08-04T10:37:18.782Z,1.58
2022-08-04T10:40:08.238Z,1.80
2022-08-04T10:42:39.101Z,1.60
2022-08-04T10:45:12.166Z,1.33
2022-08-04T10:47:45.623Z,1.30
2022-08-04T10:50:23.333Z,1.67
2022-08-04T10:52:55.444Z,1.20
2022-08-04T10:56:07.196Z,1.40
2022-08-04T10:58:20.866Z,1.30
2022-08-04T11:00:54.280Z,1.20
2022-08-04T11:03:25.347Z,1.40
2022-08-04T11:05:54.861Z,1.50
2022-08-04T11:08:25.370Z,1.70
2022-08-04T11:10:58.015Z,1.05
2022-08-04T11:16:00.039Z,1.50
2022-08-04T11:18:45.048Z,1.25
2022-08-04T11:21:17.072Z,1.40
2022-08-04T11:23:48.533Z,1.23
2022-08-04T11:26:20.733Z,1.38
2022-08-04T11:29:00.767Z,1.20
2022-08-04T11:31:33.394Z,1.25
2022-08-04T11:34:05.235Z,1.17
2022-08-04T11:36:38.390Z,1.45
2022-08-04T11:39:11.342Z,1.30
2022-08-04T11:41:42.664Z,1.38
2022-08-04T11:44:13.859Z,1.23
2022-08-04T11:46:42.972Z,1.30
2022-08-04T11:49:13.993Z,1.20
2022-08-04T11:51:44.578Z,1.17
2022-08-04T11:54:13.907Z,1.10
2022-08-04T11:56:42.425Z,1.50
2022-08-04T11:59:10.791Z,1.30
2022-08-04T12:01:45.535Z,1.20
2022-08-04T12:04:18.598Z,1.30
2022-08-04T12:07:04.562Z,1.40
2022-08-04T12:09:44.968Z,1.20
2022-08-04T12:12:17.740Z,1.10
2022-08-04T12:14:51.572Z,1.17
2022-08-04T12:17:27.348Z,1.40
2022-08-04T12:20:31.922Z,1.23
2022-08-04T12:22:59.832Z,1.83
2022-08-04T12:25:35.016Z,1.10
2022-08-04T12:28:07.702Z,1.27
2022-08-04T12:31:02.086Z,1.15
2022-08-04T12:34:02.762Z,1.23
2022-08-04T12:36:22.483Z,1.00
2022-08-04T12:38:56.719Z,1.25
2022-08-04T12:41:26.433Z,1.20
2022-08-04T12:43:58.397Z,1.20
2022-08-04T12:46:31.022Z,1.23
2022-08-04T12:49:05.244Z,1.20
2022-08-04T12:52:07.506Z,1.25
2022-08-04T12:54:40.599Z,1.13
2022-08-04T12:57:10.108Z,1.20
2022-08-04T12:59:43.735Z,1.10
2022-08-04T13:02:18.210Z,1.25
2022-08-04T13:04:51.253Z,1.27
2022-08-04T13:07:27.865Z,1.27
2022-08-04T13:10:00.558Z,1.38
2022-08-04T13:12:33.201Z,1.00
2022-08-04T13:15:09.956Z,1.20
2022-08-04T13:17:52.666Z,1.30
2022-08-04T13:20:31.761Z,1.33
2022-08-04T13:23:03.464Z,1.27
2022-08-04T13:26:42.246Z,1.02
2022-08-04T13:28:23.332Z,1.30
2022-08-04T13:30:58.244Z,1.23
2022-08-04T13:33:31.071Z,1.45
2022-08-04T13:36:00.526Z,1.30
2022-08-04T13:38:29.822Z,0.90
2022-08-04T13:41:01.910Z,1.30
2022-08-04T13:46:28.067Z,1.15
2022-08-04T13:51:57.262Z,1.25
2022-08-04T13:54:30.283Z,1.40
2022-08-04T13:59:29.864Z,1.48
2022-08-04T14:02:01.069Z,1.20
2022-08-04T14:04:31.457Z,1.50
2022-08-04T14:07:04.538Z,1.45
2022-08-04T14:09:35.456Z,1.40
2022-08-04T14:12:37.795Z,1.50
2022-08-04T14:14:57.859Z,1.42
2022-08-04T14:17:30.467Z,1.30
2022-08-04T14:20:00.423Z,1.38
2022-08-04T14:22:38.375Z,1.20
2022-08-04T14:25:09.366Z,1.40
2022-08-04T14:27:45.920Z,1.52
2022-08-04T14:30:26.352Z,1.10
2022-08-04T14:34:02.663Z,1.40
2022-08-04T14:35:58.597Z,1.38
2022-08-04T14:38:42.863Z,1.35
2022-08-04T14:41:11.368Z,1.45
2022-08-04T14:43:43.850Z,1.52
2022-08-04T14:46:16.692Z,1.20
2022-08-04T14:49:04.579Z,1.17
2022-08-04T14:51:40.356Z,1.10
2022-08-04T14:54:12.075Z,1.33
2022-08-04T14:56:52.800Z,1.10
2022-08-04T14:59:21.209Z,1.10
2022-08-04T15:02:01.332Z,1.30
2022-08-04T15:04:31.344Z,1.20
2022-08-04T15:07:00.006Z,1.10
2022-08-04T15:09:28.406Z,1.10
2022-08-04T15:11:57.014Z,1.42
2022-08-04T15:14:36.213Z,1.20
2022-08-04T15:17:12.364Z,1.10
2022-08-04T15:19:57.426Z,1.10
2022-08-04T15:22:25.879Z,1.10
2022-08-04T15:24:55.411Z,1.40
2022-08-04T15:27:25.868Z,1.20
2022-08-04T15:29:59.567Z,1.13
2022-08-04T15:32:31.417Z,1.30
2022-08-04T15:35:03.563Z,1.17
2022-08-04T15:37:38.926Z,1.27
2022-08-04T15:40:11.129Z,1.42
2022-08-04T15:42:43.184Z,1.20
2022-08-04T15:45:19.959Z,1.10
2022-08-04T15:48:08.967Z,1.17
2022-08-04T15:50:58.851Z,1.10
2022-08-04T15:53:53.500Z,1.40
2022-08-04T15:56:48.322Z,1.35
2022-08-04T15:59:48.338Z,1.27
2022-08-04T16:02:37.282Z,1.48
2022-08-04T16:05:24.269Z,1.33
2022-08-04T16:07:56.884Z,1.67
2022-08-04T16:10:37.490Z,1.20
2022-08-04T16:13:07.119Z,1.38
2022-08-04T16:15:39.054Z,1.27
2022-08-04T16:18:13.792Z,1.08
2022-08-04T16:20:56.610Z,1.15
2022-08-04T16:23:54.092Z,1.20
2022-08-04T16:26:38.097Z,1.55
2022-08-04T16:29:32.280Z,1.48
2022-08-04T16:32:15.127Z,1.40
2022-08-04T16:34:48.288Z,1.10
2022-08-04T16:37:19.544Z,1.40
2022-08-04T16:39:50.575Z,1.60
2022-08-04T16:42:33.834Z,1.30
2022-08-04T16:45:02.833Z,1.17
2022-08-04T16:47:50.060Z,1.25
2022-08-04T16:50:21.239Z,1.20
2022-08-04T16:52:51.470Z,0.93
2022-08-04T16:55:20.315Z,1.15
2022-08-04T16:57:48.867Z,1.63
2022-08-04T17:00:17.811Z,1.50
2022-08-04T17:02:46.216Z,1.30
2022-08-04T17:05:38.396Z,1.10
2022-08-04T17:08:29.009Z,1.33
2022-08-04T17:10:56.112Z,1.30
2022-08-04T17:14:03.760Z,1.35
2022-08-04T17:16:18.094Z,1.33
2022-08-04T17:18:47.835Z,1.77
2022-08-04T17:21:19.855Z,1.30
2022-08-04T17:24:14.642Z,1.20
2022-08-04T17:26:41.530Z,1.45
2022-08-04T17:31:40.692Z,1.20
2022-08-04T17:37:36.521Z,1.60
2022-08-04T17:39:53.257Z,1.25
2022-08-04T17:42:30.145Z,1.30
2022-08-04T17:45:48.768Z,1.42
2022-08-04T17:47:57.559Z,1.30
2022-08-04T17:50:26.801Z,1.45
2022-08-04T17:53:12.018Z,1.17
2022-08-04T17:55:41.870Z,1.35
2022-08-04T17:58:21.480Z,1.50
2022-08-04T18:00:57.617Z,1.27
2022-08-04T18:03:33.851Z,1.40
2022-08-04T18:06:12.817Z,1.30
2022-08-04T18:08:49.851Z,1.25
2022-08-04T18:11:22.251Z,1.50
2022-08-04T18:13:57.665Z,1.48
2022-08-04T18:16:27.484Z,1.30
2022-08-04T18:19:11.573Z,1.75
2022-08-04T18:21:46.606Z,5.70
2022-08-04T18:24:35.844Z,6.50
2022-08-04T18:27:18.898Z,3.63
2022-08-04T18:30:14.979Z,2.38
2022-08-04T18:32:36.234Z,2.40
2022-08-04T18:35:05.684Z,2.42
2022-08-04T18:38:03.261Z,2.22
2022-08-04T18:40:33.259Z,2.28
2022-08-04T18:43:07.666Z,1.95
2022-08-04T18:45:50.958Z,1.92
2022-08-04T18:48:19.879Z,1.90
2022-08-04T18:51:09.072Z,2.20
2022-08-04T18:53:44.636Z,1.77
2022-08-04T18:56:19.968Z,1.85
2022-08-04T18:59:03.991Z,1.88
2022-08-04T19:02:13.139Z,2.17
2022-08-04T19:04:33.864Z,1.80
2022-08-04T19:07:28.718Z,2.05
2022-08-04T19:09:58.238Z,1.90
2022-08-04T19:12:31.772Z,1.98
2022-08-04T19:15:08.808Z,2.30
2022-08-04T19:17:56.786Z,2.25
2022-08-04T19:20:26.645Z,2.22
2022-08-04T19:24:26.239Z,2.20
2022-08-04T19:25:59.659Z,2.00
2022-08-04T19:28:37.179Z,2.00
2022-08-04T19:31:07.773Z,2.28
2022-08-04T19:33:58.815Z,2.17
2022-08-04T19:36:27.923Z,2.38
2022-08-04T19:38:58.286Z,2.28
2022-08-04T19:41:27.149Z,2.00
2022-08-04T19:43:57.150Z,2.25
2022-08-04T19:46:28.497Z,2.30
2022-08-04T19:48:59.655Z,2.38
2022-08-04T19:51:29.281Z,2.30
2022-08-04T19:54:03.948Z,2.30
2022-08-04T19:56:40.233Z,2.20
2022-08-04T19:59:11.118Z,2.53
2022-08-04T20:01:45.322Z,2.55
2022-08-04T20:04:14.528Z,2.25
2022-08-04T20:06:43.087Z,2.13
2022-08-04T20:09:24.910Z,2.58
2022-08-04T20:14:32.351Z,2.38
2022-08-04T20:17:01.745Z,2.70
2022-08-04T20:19:30.574Z,2.50
2022-08-04T20:22:00.071Z,2.72
2022-08-04T20:24:39.350Z,2.70
2022-08-04T20:27:15.578Z,3.20
2022-08-04T20:29:48.461Z,3.08
2022-08-04T20:32:19.251Z,2.40
2022-08-04T20:34:48.277Z,2.45
2022-08-04T20:37:16.789Z,2.33
2022-08-04T20:39:45.205Z,2.33
2022-08-04T20:42:27.786Z,2.30
2022-08-04T20:45:03.566Z,2.30
2022-08-04T20:47:35.525Z,2.53
2022-08-04T20:50:04.910Z,2.30
2022-08-04T20:52:33.372Z,2.28
2022-08-04T20:55:02.678Z,2.58
2022-08-04T20:57:48.392Z,2.47
2022-08-04T21:00:26.412Z,2.40
2022-08-04T21:02:58.725Z,2.58
2022-08-04T21:05:27.303Z,2.30
2022-08-04T21:07:56.822Z,2.80
2022-08-04T21:10:25.758Z,2.55
2022-08-04T21:12:54.646Z,2.97
2022-08-04T21:15:30.905Z,2.50
2022-08-04T21:18:14.736Z,2.67
2022-08-04T21:20:45.240Z,2.55
2022-08-04T21:23:16.699Z,2.60
2022-08-04T21:25:50.068Z,2.80
2022-08-04T21:30:52.453Z,2.58
2022-08-04T21:33:24.056Z,2.50
2022-08-04T21:35:54.357Z,2.83
2022-08-04T21:38:27.917Z,2.78
2022-08-04T21:41:01.817Z,2.83
2022-08-04T21:43:34.446Z,2.30
2022-08-04T21:46:13.017Z,2.88
2022-08-04T21:48:43.566Z,2.72
2022-08-04T21:51:56.886Z,2.78
2022-08-04T21:54:04.951Z,3.55
2022-08-04T21:56:34.018Z,3.20
2022-08-04T21:59:07.165Z,3.30
2022-08-04T22:01:50.915Z,3.28
2022-08-04T22:04:20.206Z,3.15
2022-08-04T22:06:51.997Z,3.10
2022-08-04T22:09:21.986Z,2.92
2022-08-04T22:11:51.735Z,2.88
2022-08-04T22:14:27.159Z,3.30
2022-08-04T22:16:58.470Z,2.75
2022-08-04T22:19:49.749Z,2.72
2022-08-04T22:22:26.302Z,2.95
2022-08-04T22:24:58.472Z,3.00
2022-08-04T22:27:47.322Z,3.20
2022-08-04T22:30:17.999Z,3.00
2022-08-04T22:32:48.245Z,2.92
2022-08-04T22:35:36.586Z,3.00
2022-08-04T22:38:35.852Z,3.40
2022-08-04T22:40:59.972Z,3.15
2022-08-04T22:43:33.529Z,2.75
2022-08-04T22:46:05.049Z,3.10
2022-08-04T22:48:36.022Z,3.05
2022-08-04T22:51:04.915Z,3.08
2022-08-04T22:53:33.977Z,3.25
2022-08-04T22:56:10.225Z,2.88
2022-08-04T22:58:40.714Z,3.30
2022-08-04T23:01:15.030Z,3.58
2022-08-04T23:03:50.902Z,3.05
2022-08-04T23:06:24.859Z,3.08
2022-08-04T23:08:53.575Z,3.20
2022-08-04T23:11:22.046Z,3.25
2022-08-04T23:13:50.480Z,2.97
2022-08-04T23:16:19.859Z,3.33
2022-08-04T23:18:49.577Z,3.53
2022-08-04T23:21:24.136Z,2.70
2022-08-04T23:24:00.780Z,3.00
2022-08-04T23:26:31.262Z,3.00
2022-08-04T23:28:59.604Z,2.70
2022-08-04T23:31:40.721Z,3.67
2022-08-04T23:34:18.692Z,3.47
2022-08-04T23:36:47.529Z,3.33
2022-08-04T23:39:16.077Z,3.17
2022-08-04T23:41:54.338Z,2.83
2022-08-04T23:44:26.995Z,2.95
2022-08-04T23:46:59.206Z,3.20
2022-08-04T23:49:43.670Z,3.50
2022-08-04T23:52:23.216Z,3.42
2022-08-04T23:54:58.808Z,3.40
2022-08-04T23:57:30.978Z,3.13
